createdAt,value
2019-04-21T00:00:35.488Z,0.00
2019-04-21T00:01:39.871Z,0.00
2019-04-21T00:02:37.714Z,0.00
2019-04-21T00:03:42.394Z,0.00
2019-04-21T00:04:46.849Z,0.00
2019-04-21T00:05:54.590Z,0.00
2019-04-21T00:06:58.262Z,0.00
2019-04-21T00:07:51.082Z,0.00
2019-04-21T00:08:56.512Z,0.00
2019-04-21T00:10:59.365Z,0.00
2019-04-21T00:11:57.270Z,0.00
2019-04-21T00:12:52.056Z,0.00
2019-04-21T00:13:46.742Z,0.00
2019-04-21T00:14:46.070Z,0.00
2019-04-21T00:15:42.070Z,0.00
2019-04-21T00:16:44.126Z,0.00
2019-04-21T00:17:35.049Z,0.00
2019-04-21T00:18:41.783Z,0.00
2019-04-21T00:19:37.081Z,0.00
2019-04-21T00:20:41.291Z,0.00
2019-04-21T00:21:40.466Z,0.00
2019-04-21T00:22:44.439Z,0.00
2019-04-21T00:23:54.095Z,0.00
2019-04-21T00:25:46.135Z,0.00
2019-04-21T00:26:55.667Z,0.00
2019-04-21T00:27:50.108Z,0.00
2019-04-21T00:28:59.515Z,0.00
2019-04-21T00:29:52.172Z,0.00
2019-04-21T00:30:50.503Z,0.00
2019-04-21T00:31:45.550Z,0.00
2019-04-21T00:32:46.544Z,0.00
2019-04-21T00:33:37.773Z,0.00
2019-04-21T00:34:34.283Z,0.00
2019-04-21T00:35:40.365Z,0.00
2019-04-21T00:36:48.891Z,0.00
2019-04-21T00:37:53.359Z,0.00
2019-04-21T00:39:06.876Z,0.00
2019-04-21T00:40:00.980Z,0.00
2019-04-21T00:40:54.822Z,0.00
2019-04-21T00:41:53.741Z,0.00
2019-04-21T00:42:48.745Z,0.00
2019-04-21T00:43:49.064Z,0.00
2019-04-21T00:44:52.098Z,0.00
2019-04-21T00:45:44.641Z,0.00
2019-04-21T00:46:47.244Z,0.00
2019-04-21T00:47:52.865Z,0.00
2019-04-21T00:48:53.439Z,0.00
2019-04-21T00:49:58.002Z,0.00
2019-04-21T00:51:11.782Z,0.00
2019-04-21T00:52:09.359Z,0.00
2019-04-21T00:53:02.246Z,0.00
2019-04-21T00:54:07.044Z,0.00
2019-04-21T00:55:10.062Z,0.00
2019-04-21T00:55:57.347Z,0.00
2019-04-21T00:56:59.163Z,0.00
2019-04-21T00:58:00.071Z,0.00
2019-04-21T00:58:59.529Z,0.00
2019-04-21T00:59:50.007Z,0.00
2019-04-21T01:00:58.128Z,0.00
2019-04-21T01:01:53.868Z,0.00
2019-04-21T01:02:56.119Z,0.00
2019-04-21T01:03:58.285Z,0.00
2019-04-21T01:04:59.804Z,0.00
2019-04-21T01:06:14.377Z,0.00
2019-04-21T01:06:56.055Z,0.00
2019-04-21T01:07:54.659Z,0.00
2019-04-21T01:08:55.267Z,0.00
2019-04-21T01:09:50.072Z,0.00
2019-04-21T01:10:49.165Z,0.00
2019-04-21T01:11:57.583Z,0.00
2019-04-21T01:12:56.114Z,0.00
2019-04-21T01:13:59.636Z,0.00
2019-04-21T01:14:59.522Z,0.00
2019-04-21T01:15:53.336Z,0.00
2019-04-21T01:16:57.960Z,0.00
2019-04-21T01:17:54.601Z,0.00
2019-04-21T01:18:51.920Z,0.00
2019-04-21T01:19:46.861Z,0.00
2019-04-21T01:20:32.975Z,0.00
2019-04-21T01:21:32.967Z,0.00
2019-04-21T01:22:32.940Z,0.00
2019-04-21T01:23:33.688Z,0.00
2019-04-21T01:24:37.627Z,0.00
2019-04-21T01:25:38.186Z,0.00
2019-04-21T01:26:43.818Z,0.00
2019-04-21T01:27:55.901Z,0.00
2019-04-21T01:28:52.460Z,0.00
2019-04-21T01:29:54.006Z,0.00
2019-04-21T01:30:53.571Z,0.00
2019-04-21T01:31:48.274Z,0.00
2019-04-21T01:32:53.267Z,0.00
2019-04-21T01:33:59.227Z,0.00
2019-04-21T01:34:51.101Z,0.00
2019-04-21T01:35:53.703Z,0.00
2019-04-21T01:36:49.824Z,0.00
2019-04-21T01:38:10.965Z,0.00
2019-04-21T01:38:57.769Z,0.00
2019-04-21T01:39:54.529Z,0.00
2019-04-21T01:40:57.124Z,0.00
2019-04-21T01:41:51.145Z,0.00
2019-04-21T01:42:51.123Z,0.00
2019-04-21T01:43:51.554Z,0.00
2019-04-21T01:44:56.413Z,0.00
2019-04-21T01:45:48.705Z,0.00
2019-04-21T01:46:49.293Z,0.00
2019-04-21T01:47:51.091Z,0.00
2019-04-21T01:48:49.346Z,0.00
2019-04-21T01:49:43.061Z,0.00
2019-04-21T01:50:51.045Z,0.00
2019-04-21T01:52:05.578Z,0.00
2019-04-21T01:52:56.016Z,0.00
2019-04-21T01:53:57.956Z,0.00
2019-04-21T01:54:55.208Z,0.00
2019-04-21T01:55:54.555Z,0.00
2019-04-21T01:56:53.985Z,0.00
2019-04-21T01:57:49.338Z,0.00
2019-04-21T01:58:42.951Z,0.00
2019-04-21T01:59:47.145Z,0.00
2019-04-21T02:00:48.483Z,0.00
2019-04-21T02:01:54.124Z,0.00
2019-04-21T02:02:59.571Z,0.00
2019-04-21T02:05:00.737Z,0.00
2019-04-21T02:05:58.593Z,0.00
2019-04-21T02:06:45.594Z,0.00
2019-04-21T02:07:50.554Z,0.00
2019-04-21T02:08:50.982Z,0.00
2019-04-21T02:09:50.730Z,0.00
2019-04-21T02:10:54.928Z,0.00
2019-04-21T02:11:56.368Z,0.00
2019-04-21T02:12:54.979Z,0.00
2019-04-21T02:14:00.406Z,0.00
2019-04-21T02:15:00.425Z,0.00
2019-04-21T02:15:56.405Z,0.00
2019-04-21T02:16:55.678Z,0.00
2019-04-21T02:17:53.706Z,0.00
2019-04-21T02:18:53.064Z,0.00
2019-04-21T02:19:51.736Z,0.00
2019-04-21T02:20:40.999Z,0.00
2019-04-21T02:21:50.415Z,0.00
2019-04-21T02:23:19.158Z,0.00
2019-04-21T02:23:58.656Z,0.00
2019-04-21T02:24:58.365Z,0.00
2019-04-21T02:26:48.517Z,0.00
2019-04-21T02:27:57.498Z,0.00
2019-04-21T02:28:55.855Z,0.00
2019-04-21T02:29:55.850Z,0.00
2019-04-21T02:31:14.187Z,0.00
2019-04-21T02:32:20.227Z,0.00
2019-04-21T02:36:15.477Z,0.00
2019-04-21T02:38:13.914Z,0.00
2019-04-21T02:39:08.164Z,0.00
2019-04-21T02:40:04.927Z,0.00
2019-04-21T02:40:57.888Z,0.00
2019-04-21T02:42:05.327Z,0.00
2019-04-21T02:43:05.370Z,0.00
2019-04-21T02:44:10.154Z,0.00
2019-04-21T02:45:00.333Z,0.00
2019-04-21T02:46:04.259Z,0.00
2019-04-21T02:47:12.182Z,0.00
2019-04-21T02:48:06.915Z,0.00
2019-04-21T02:49:07.845Z,0.00
2019-04-21T02:50:09.555Z,0.00
2019-04-21T02:50:57.682Z,0.00
2019-04-21T02:52:13.782Z,0.00
2019-04-21T02:53:07.099Z,0.00
2019-04-21T02:54:31.826Z,0.00
2019-04-21T02:55:02.798Z,0.00
2019-04-21T02:56:00.211Z,0.00
2019-04-21T02:59:17.142Z,0.00
2019-04-21T03:00:06.863Z,0.00
2019-04-21T03:01:08.072Z,0.00
2019-04-21T03:02:03.628Z,0.00
2019-04-21T03:04:00.056Z,0.00
2019-04-21T03:05:02.413Z,0.00
2019-04-21T03:07:09.667Z,0.00
2019-04-21T03:09:09.208Z,0.00
2019-04-21T03:10:00.105Z,0.00
2019-04-21T03:11:09.390Z,0.00
2019-04-21T03:13:08.916Z,0.00
2019-04-21T03:14:11.101Z,0.00
2019-04-21T03:15:08.061Z,0.00
2019-04-21T03:16:09.227Z,0.00
2019-04-21T03:17:05.645Z,0.00
2019-04-21T03:18:06.475Z,0.00
2019-04-21T03:19:20.366Z,0.00
2019-04-21T03:19:59.929Z,0.00
2019-04-21T03:21:16.341Z,0.00
2019-04-21T03:22:05.227Z,0.00
2019-04-21T03:23:09.470Z,0.00
2019-04-21T03:23:57.375Z,0.00
2019-04-21T03:25:28.290Z,0.00
2019-04-21T03:26:14.348Z,0.00
2019-04-21T03:29:03.619Z,0.00
2019-04-21T03:30:14.276Z,0.00
2019-04-21T03:31:24.997Z,0.00
2019-04-21T03:32:31.806Z,0.00
2019-04-21T03:33:47.004Z,0.00
2019-04-21T03:37:11.357Z,0.00
2019-04-21T03:38:13.778Z,0.00
2019-04-21T03:38:55.596Z,0.00
2019-04-21T03:39:59.336Z,0.00
2019-04-21T03:40:57.719Z,0.00
2019-04-21T03:43:59.158Z,0.00
2019-04-21T03:45:06.849Z,0.00
2019-04-21T03:46:00.913Z,0.00
2019-04-21T03:48:05.309Z,0.00
2019-04-21T03:49:12.234Z,0.00
2019-04-21T03:50:08.019Z,0.00
2019-04-21T03:50:56.419Z,0.00
2019-04-21T03:52:03.813Z,0.00
2019-04-21T03:53:06.980Z,0.00
2019-04-21T03:54:00.372Z,0.00
2019-04-21T03:55:18.265Z,0.00
2019-04-21T03:57:17.791Z,0.00
2019-04-21T04:00:17.659Z,0.00
2019-04-21T04:03:27.476Z,0.00
2019-04-21T04:05:08.940Z,0.00
2019-04-21T04:07:25.082Z,0.00
2019-04-21T04:08:24.980Z,0.00
2019-04-21T04:09:19.384Z,0.00
2019-04-21T04:10:11.766Z,0.00
2019-04-21T04:11:23.435Z,0.00
2019-04-21T04:11:56.051Z,0.00
2019-04-21T04:12:57.083Z,0.00
2019-04-21T04:14:09.051Z,0.00
2019-04-21T04:18:07.787Z,0.00
2019-04-21T04:19:01.563Z,0.00
2019-04-21T04:20:24.075Z,0.00
2019-04-21T04:21:03.480Z,0.00
2019-04-21T04:22:09.364Z,0.00
2019-04-21T04:23:03.801Z,0.00
2019-04-21T04:24:09.144Z,0.00
2019-04-21T04:25:57.754Z,0.00
2019-04-21T04:28:09.870Z,0.00
2019-04-21T04:29:04.177Z,0.00
2019-04-21T04:30:10.672Z,0.00
2019-04-21T04:31:09.283Z,0.00
2019-04-21T04:31:58.792Z,0.00
2019-04-21T04:32:57.242Z,0.00
2019-04-21T04:34:10.440Z,0.00
2019-04-21T04:35:04.006Z,0.00
2019-04-21T04:36:15.637Z,0.00
2019-04-21T04:37:05.406Z,5.63
2019-04-21T04:37:59.191Z,5.63
2019-04-21T04:39:23.047Z,5.63
2019-04-21T04:40:10.466Z,5.63
2019-04-21T04:41:09.739Z,5.63
2019-04-21T04:43:09.034Z,5.63
2019-04-21T04:44:06.991Z,5.63
2019-04-21T04:46:00.517Z,5.63
2019-04-21T04:47:04.646Z,5.63
2019-04-21T04:48:01.958Z,5.63
2019-04-21T04:49:01.718Z,5.63
2019-04-21T04:50:10.271Z,5.63
2019-04-21T04:51:02.206Z,5.63
2019-04-21T04:52:18.691Z,5.63
2019-04-21T04:52:57.022Z,5.63
2019-04-21T04:54:28.645Z,5.63
2019-04-21T04:55:00.681Z,5.63
2019-04-21T04:57:08.217Z,11.25
2019-04-21T04:59:23.389Z,11.25
2019-04-21T05:01:08.057Z,11.25
2019-04-21T05:02:56.378Z,11.25
2019-04-21T05:04:20.567Z,11.25
2019-04-21T05:05:09.185Z,11.25
2019-04-21T05:06:15.827Z,11.25
2019-04-21T05:06:58.094Z,11.25
2019-04-21T05:08:19.814Z,11.25
2019-04-21T05:11:08.028Z,11.25
2019-04-21T05:11:55.742Z,16.88
2019-04-21T05:13:04.315Z,16.88
2019-04-21T05:14:59.911Z,16.88
2019-04-21T05:16:01.582Z,16.88
2019-04-21T05:17:57.609Z,16.88
2019-04-21T05:21:03.597Z,16.88
2019-04-21T05:22:05.807Z,16.88
2019-04-21T05:22:53.140Z,16.88
2019-04-21T05:23:46.986Z,16.88
2019-04-21T05:24:44.073Z,16.88
2019-04-21T05:25:48.402Z,16.88
2019-04-21T05:26:50.771Z,16.88
2019-04-21T05:27:45.153Z,16.88
2019-04-21T05:28:42.034Z,22.50
2019-04-21T05:29:56.799Z,22.50
2019-04-21T05:30:58.539Z,22.50
2019-04-21T05:32:18.483Z,22.50
2019-04-21T05:32:58.411Z,22.50
2019-04-21T05:33:53.234Z,22.50
2019-04-21T05:34:50.823Z,22.50
2019-04-21T05:35:49.075Z,22.50
2019-04-21T05:36:52.430Z,22.50
2019-04-21T05:37:50.405Z,22.50
2019-04-21T05:38:50.257Z,22.50
2019-04-21T05:39:42.013Z,22.50
2019-04-21T05:40:38.991Z,22.50
2019-04-21T05:41:38.607Z,22.50
2019-04-21T05:42:48.604Z,22.50
2019-04-21T05:43:54.465Z,22.50
2019-04-21T05:44:58.807Z,22.50
2019-04-21T05:45:53.539Z,22.50
2019-04-21T05:46:59.370Z,22.50
2019-04-21T05:47:55.837Z,28.13
2019-04-21T05:48:52.601Z,28.13
2019-04-21T05:49:49.921Z,28.13
2019-04-21T05:50:49.510Z,28.13
2019-04-21T05:51:44.310Z,28.13
2019-04-21T05:52:46.775Z,28.13
2019-04-21T05:53:56.131Z,28.13
2019-04-21T05:54:57.296Z,28.13
2019-04-21T05:55:58.397Z,28.13
2019-04-21T05:56:48.755Z,28.13
2019-04-21T05:57:47.827Z,28.13
2019-04-21T05:58:49.723Z,28.13
2019-04-21T05:59:49.215Z,28.13
2019-04-21T06:02:01.414Z,28.13
2019-04-21T06:02:55.566Z,28.13
2019-04-21T06:06:56.896Z,28.13
2019-04-21T06:07:48.973Z,33.75
2019-04-21T06:08:48.092Z,33.75
2019-04-21T06:09:56.418Z,33.75
2019-04-21T06:10:52.460Z,33.75
2019-04-21T06:11:51.230Z,33.75
2019-04-21T06:12:57.905Z,33.75
2019-04-21T06:13:55.068Z,33.75
2019-04-21T06:14:54.551Z,33.75
2019-04-21T06:15:57.972Z,33.75
2019-04-21T06:16:58.679Z,33.75
2019-04-21T06:17:54.737Z,33.75
2019-04-21T06:18:53.086Z,33.75
2019-04-21T06:20:55.095Z,33.75
2019-04-21T06:21:44.892Z,33.75
2019-04-21T06:22:53.319Z,33.75
2019-04-21T06:23:49.725Z,33.75
2019-04-21T06:25:16.271Z,33.75
2019-04-21T06:26:25.378Z,33.75
2019-04-21T06:27:05.388Z,33.75
2019-04-21T06:27:51.109Z,33.75
2019-04-21T06:28:51.851Z,33.75
2019-04-21T06:29:52.731Z,33.75
2019-04-21T06:31:01.535Z,33.75
2019-04-21T06:32:16.330Z,33.75
2019-04-21T06:32:50.582Z,33.75
2019-04-21T06:34:04.718Z,33.75
2019-04-21T06:35:07.319Z,33.75
2019-04-21T06:36:11.457Z,39.38
2019-04-21T06:37:50.831Z,33.75
2019-04-21T06:39:01.976Z,39.38
2019-04-21T06:40:01.935Z,33.75
2019-04-21T06:40:58.748Z,33.75
2019-04-21T06:41:49.008Z,33.75
2019-04-21T06:43:04.394Z,33.75
2019-04-21T06:43:56.597Z,33.75
2019-04-21T06:44:57.507Z,33.75
2019-04-21T06:46:11.053Z,39.38
2019-04-21T06:47:06.346Z,39.38
2019-04-21T06:47:51.334Z,39.38
2019-04-21T06:48:55.519Z,39.38
2019-04-21T06:49:52.411Z,39.38
2019-04-21T06:50:52.606Z,33.75
2019-04-21T06:51:46.893Z,39.38
2019-04-21T06:53:59.715Z,39.38
2019-04-21T06:54:57.043Z,39.38
2019-04-21T06:55:57.545Z,39.38
2019-04-21T06:57:04.917Z,39.38
2019-04-21T06:57:56.101Z,39.38
2019-04-21T06:58:51.776Z,39.38
2019-04-21T06:59:43.399Z,39.38
2019-04-21T07:00:47.749Z,39.38
2019-04-21T07:01:55.094Z,39.38
2019-04-21T07:02:52.830Z,39.38
2019-04-21T07:04:01.667Z,39.38
2019-04-21T07:05:57.616Z,39.38
2019-04-21T07:08:05.202Z,39.38
2019-04-21T07:09:52.742Z,39.38
2019-04-21T07:10:51.732Z,39.38
2019-04-21T07:11:52.892Z,39.38
2019-04-21T07:12:45.314Z,39.38
2019-04-21T07:13:49.052Z,39.38
2019-04-21T07:14:49.776Z,39.38
2019-04-21T07:15:53.100Z,39.38
2019-04-21T07:16:52.964Z,39.38
2019-04-21T07:17:53.600Z,39.38
2019-04-21T07:20:07.198Z,39.38
2019-04-21T07:20:49.157Z,39.38
2019-04-21T07:21:54.208Z,39.38
2019-04-21T07:22:51.203Z,39.38
2019-04-21T07:23:54.361Z,39.38
2019-04-21T07:24:49.286Z,39.38
2019-04-21T07:25:51.965Z,39.38
2019-04-21T07:26:51.556Z,39.38
2019-04-21T07:28:56.900Z,39.38
2019-04-21T07:29:56.545Z,39.38
2019-04-21T07:30:56.621Z,39.38
2019-04-21T07:31:55.643Z,39.38
2019-04-21T07:32:56.299Z,39.38
2019-04-21T07:34:52.147Z,39.38
2019-04-21T07:35:51.794Z,39.38
2019-04-21T07:37:49.368Z,39.38
2019-04-21T07:38:45.612Z,45.00
2019-04-21T07:39:46.913Z,45.00
2019-04-21T07:40:42.965Z,45.00
2019-04-21T07:41:46.944Z,45.00
2019-04-21T07:42:42.931Z,45.00
2019-04-21T07:43:44.111Z,45.00
2019-04-21T07:44:44.750Z,45.00
2019-04-21T07:45:40.179Z,45.00
2019-04-21T07:46:42.709Z,45.00
2019-04-21T07:47:48.114Z,45.00
2019-04-21T07:48:50.113Z,45.00
2019-04-21T07:49:53.521Z,45.00
2019-04-21T07:50:47.433Z,45.00
2019-04-21T07:51:50.651Z,50.63
2019-04-21T07:52:55.382Z,50.63
2019-04-21T07:53:55.672Z,50.63
2019-04-21T07:55:03.282Z,50.63
2019-04-21T07:56:35.039Z,50.63
2019-04-21T07:57:47.894Z,50.63
2019-04-21T07:58:55.813Z,50.63
2019-04-21T07:59:57.837Z,50.63
2019-04-21T08:00:52.643Z,50.63
2019-04-21T08:01:53.192Z,50.63
2019-04-21T08:02:49.745Z,50.63
2019-04-21T08:03:47.873Z,50.63
2019-04-21T08:05:09.986Z,50.63
2019-04-21T08:05:45.763Z,50.63
2019-04-21T08:06:47.688Z,50.63
2019-04-21T08:07:52.043Z,50.63
2019-04-21T08:08:50.985Z,56.25
2019-04-21T08:09:47.307Z,56.25
2019-04-21T08:10:47.073Z,56.25
2019-04-21T08:11:41.655Z,56.25
2019-04-21T08:12:42.032Z,56.25
2019-04-21T08:13:44.929Z,56.25
2019-04-21T08:14:50.737Z,56.25
2019-04-21T08:15:44.160Z,56.25
2019-04-21T08:16:56.034Z,56.25
2019-04-21T08:17:47.132Z,56.25
2019-04-21T08:18:45.520Z,56.25
2019-04-21T08:19:43.055Z,56.25
2019-04-21T08:20:46.220Z,56.25
2019-04-21T08:21:54.609Z,56.25
2019-04-21T08:23:43.604Z,61.88
2019-04-21T08:24:51.788Z,61.88
2019-04-21T08:25:53.264Z,61.88
2019-04-21T08:26:53.719Z,61.88
2019-04-21T08:27:56.995Z,61.88
2019-04-21T08:28:47.473Z,67.50
2019-04-21T08:29:45.964Z,67.50
2019-04-21T08:30:43.224Z,73.13
2019-04-21T08:34:55.170Z,84.38
2019-04-21T08:36:46.208Z,78.75
2019-04-21T08:37:43.265Z,118.13
2019-04-21T08:38:49.614Z,118.13
2019-04-21T08:40:00.637Z,118.13
2019-04-21T08:40:47.004Z,123.75
2019-04-21T08:41:46.438Z,90.00
2019-04-21T08:42:44.771Z,78.75
2019-04-21T08:43:48.023Z,78.75
2019-04-21T08:44:47.929Z,78.75
2019-04-21T08:45:48.207Z,78.75
2019-04-21T08:46:49.136Z,78.75
2019-04-21T08:47:47.707Z,78.75
2019-04-21T08:48:50.827Z,84.38
2019-04-21T08:50:44.274Z,84.38
2019-04-21T08:51:51.697Z,90.00
2019-04-21T08:52:49.052Z,90.00
2019-04-21T08:53:57.462Z,84.38
2019-04-21T08:54:48.139Z,90.00
2019-04-21T08:55:48.906Z,78.75
2019-04-21T08:56:49.088Z,78.75
2019-04-21T08:57:53.912Z,73.13
2019-04-21T08:58:52.271Z,73.13
2019-04-21T08:59:45.951Z,73.13
2019-04-21T09:00:47.356Z,78.75
2019-04-21T09:01:48.897Z,78.75
2019-04-21T09:02:47.403Z,78.75
2019-04-21T09:03:43.011Z,84.38
2019-04-21T09:04:48.010Z,84.38
2019-04-21T09:05:45.085Z,84.38
2019-04-21T09:07:04.627Z,84.38
2019-04-21T09:07:49.549Z,84.38
2019-04-21T09:08:45.760Z,78.75
2019-04-21T09:09:47.418Z,78.75
2019-04-21T09:10:47.225Z,84.38
2019-04-21T09:11:50.910Z,84.38
2019-04-21T09:12:43.286Z,84.38
2019-04-21T09:13:41.132Z,106.88
2019-04-21T09:14:46.057Z,106.88
2019-04-21T09:15:41.621Z,101.25
2019-04-21T09:16:42.679Z,95.63
2019-04-21T09:17:37.779Z,106.88
2019-04-21T09:18:41.548Z,101.25
2019-04-21T09:19:51.006Z,101.25
2019-04-21T09:20:52.158Z,101.25
2019-04-21T09:21:46.961Z,118.13
2019-04-21T09:22:42.961Z,129.38
2019-04-21T09:23:45.302Z,135.00
2019-04-21T09:24:46.938Z,151.88
2019-04-21T09:25:47.280Z,157.50
2019-04-21T09:26:40.660Z,163.13
2019-04-21T09:27:42.101Z,174.38
2019-04-21T09:28:39.416Z,180.00
2019-04-21T09:29:35.428Z,185.63
2019-04-21T09:30:26.381Z,196.88
2019-04-21T09:31:31.853Z,202.50
2019-04-21T09:32:30.159Z,208.13
2019-04-21T09:33:34.156Z,208.13
2019-04-21T09:34:35.880Z,208.13
2019-04-21T09:35:27.013Z,208.13
2019-04-21T09:36:35.280Z,208.13
2019-04-21T09:37:37.950Z,213.75
2019-04-21T09:38:33.848Z,213.75
2019-04-21T09:39:29.509Z,219.38
2019-04-21T09:40:33.974Z,225.00
2019-04-21T09:41:27.712Z,219.38
2019-04-21T09:42:34.572Z,213.75
2019-04-21T09:43:35.751Z,225.00
2019-04-21T09:44:31.507Z,236.25
2019-04-21T09:45:26.433Z,236.25
2019-04-21T09:46:25.867Z,213.75
2019-04-21T09:47:35.037Z,196.88
2019-04-21T09:48:26.662Z,185.63
2019-04-21T09:49:29.476Z,191.25
2019-04-21T09:50:26.538Z,213.75
2019-04-21T09:51:25.981Z,191.25
2019-04-21T09:52:36.129Z,202.50
2019-04-21T09:53:32.966Z,219.38
2019-04-21T09:54:31.150Z,253.13
2019-04-21T09:55:31.986Z,236.25
2019-04-21T09:56:37.408Z,236.25
2019-04-21T09:57:36.685Z,264.38
2019-04-21T09:58:33.104Z,275.63
2019-04-21T09:59:33.069Z,298.13
2019-04-21T10:00:29.329Z,320.63
2019-04-21T10:01:37.149Z,320.63
2019-04-21T10:02:35.225Z,337.50
2019-04-21T10:03:26.358Z,348.75
2019-04-21T10:04:26.639Z,337.50
2019-04-21T10:05:25.836Z,624.38
2019-04-21T10:06:26.086Z,855.00
2019-04-21T10:07:31.848Z,804.38
2019-04-21T10:08:27.181Z,759.38
2019-04-21T10:09:26.403Z,1012.50
2019-04-21T10:10:25.821Z,1080.00
2019-04-21T10:11:26.886Z,798.75
2019-04-21T10:12:25.824Z,720.00
2019-04-21T10:13:25.817Z,663.75
2019-04-21T10:14:26.425Z,759.38
2019-04-21T10:15:27.838Z,1091.25
2019-04-21T10:16:26.081Z,1186.88
2019-04-21T10:17:25.815Z,1181.25
2019-04-21T10:18:25.812Z,1096.88
2019-04-21T10:19:25.806Z,1186.88
2019-04-21T10:20:26.457Z,1265.63
2019-04-21T10:21:27.586Z,1113.75
2019-04-21T10:22:26.683Z,1012.50
2019-04-21T10:23:25.813Z,900.00
2019-04-21T10:24:26.363Z,804.38
2019-04-21T10:25:25.832Z,1265.63
2019-04-21T10:26:26.425Z,2874.38
2019-04-21T10:27:27.254Z,2874.38
2019-04-21T10:28:26.882Z,2874.38
2019-04-21T10:29:28.839Z,1282.50
2019-04-21T10:30:26.675Z,1119.38
2019-04-21T10:31:26.900Z,815.63
2019-04-21T10:32:25.800Z,618.75
2019-04-21T10:33:26.276Z,618.75
2019-04-21T10:34:25.804Z,624.38
2019-04-21T10:35:26.316Z,1080.00
2019-04-21T10:36:26.852Z,1237.50
2019-04-21T10:37:40.058Z,894.38
2019-04-21T10:38:34.577Z,675.00
2019-04-21T10:39:25.825Z,843.75
2019-04-21T10:40:25.803Z,883.13
2019-04-21T10:41:25.795Z,922.50
2019-04-21T10:42:26.887Z,618.75
2019-04-21T10:43:27.361Z,579.38
2019-04-21T10:44:27.227Z,720.00
2019-04-21T10:45:25.803Z,568.13
2019-04-21T10:46:26.680Z,506.25
2019-04-21T10:47:26.935Z,905.63
2019-04-21T10:48:25.792Z,1040.63
2019-04-21T10:49:26.636Z,911.25
2019-04-21T10:50:26.787Z,703.13
2019-04-21T10:51:25.782Z,1001.25
2019-04-21T10:52:28.952Z,933.75
2019-04-21T10:53:26.761Z,495.00
2019-04-21T10:54:27.227Z,573.75
2019-04-21T10:55:40.268Z,545.63
2019-04-21T10:56:31.335Z,551.25
2019-04-21T10:57:26.407Z,759.38
2019-04-21T10:58:26.572Z,483.75
2019-04-21T10:59:26.859Z,185.63
2019-04-21T11:00:25.981Z,230.63
2019-04-21T11:01:27.193Z,258.75
2019-04-21T11:02:26.400Z,601.88
2019-04-21T11:03:26.878Z,641.25
2019-04-21T11:04:32.388Z,663.75
2019-04-21T11:05:26.983Z,781.88
2019-04-21T11:06:26.502Z,939.38
2019-04-21T11:07:31.158Z,1164.38
2019-04-21T11:08:33.737Z,1153.13
2019-04-21T11:09:26.353Z,978.75
2019-04-21T11:10:25.837Z,860.63
2019-04-21T11:11:25.974Z,815.63
2019-04-21T11:12:25.924Z,832.50
2019-04-21T11:13:26.408Z,663.75
2019-04-21T11:14:27.118Z,984.38
2019-04-21T11:15:25.753Z,1248.75
2019-04-21T11:16:26.893Z,1237.50
2019-04-21T11:17:25.944Z,1113.75
2019-04-21T11:18:26.020Z,1198.13
2019-04-21T11:19:25.725Z,1023.75
2019-04-21T11:20:26.838Z,1023.75
2019-04-21T11:21:26.985Z,1265.63
2019-04-21T11:22:26.150Z,2874.38
2019-04-21T11:23:26.899Z,1248.75
2019-04-21T11:24:27.020Z,405.00
2019-04-21T11:25:26.219Z,883.13
2019-04-21T11:26:25.708Z,866.25
2019-04-21T11:27:26.836Z,264.38
2019-04-21T11:28:27.098Z,213.75
2019-04-21T11:29:26.347Z,275.63
2019-04-21T11:30:25.725Z,405.00
2019-04-21T11:31:27.076Z,376.88
2019-04-21T11:32:25.722Z,961.88
2019-04-21T11:33:27.026Z,511.88
2019-04-21T11:34:25.698Z,759.38
2019-04-21T11:35:25.699Z,2874.38
2019-04-21T11:36:26.995Z,714.38
2019-04-21T11:37:26.111Z,421.88
2019-04-21T11:38:30.011Z,399.38
2019-04-21T11:39:39.155Z,894.38
2019-04-21T11:40:25.707Z,1085.63
2019-04-21T11:41:25.741Z,303.75
2019-04-21T11:42:25.809Z,258.75
2019-04-21T11:43:25.695Z,399.38
2019-04-21T11:44:26.920Z,517.50
2019-04-21T11:45:26.316Z,225.00
2019-04-21T11:46:26.810Z,168.75
2019-04-21T11:47:25.695Z,247.50
2019-04-21T11:48:26.150Z,528.75
2019-04-21T11:49:28.559Z,151.88
2019-04-21T11:50:25.663Z,174.38
2019-04-21T11:51:26.902Z,253.13
2019-04-21T11:52:26.852Z,258.75
2019-04-21T11:53:25.675Z,213.75
2019-04-21T11:54:26.780Z,354.38
2019-04-21T11:55:29.491Z,630.00
2019-04-21T11:56:27.114Z,393.75
2019-04-21T11:57:28.736Z,151.88
2019-04-21T11:58:26.188Z,230.63
2019-04-21T11:59:25.908Z,163.13
2019-04-21T12:00:25.634Z,219.38
2019-04-21T12:01:25.774Z,849.38
2019-04-21T12:02:25.782Z,720.00
2019-04-21T12:03:25.645Z,1012.50
2019-04-21T12:04:25.621Z,686.25
2019-04-21T12:05:25.616Z,1001.25
2019-04-21T12:06:32.203Z,2874.38
2019-04-21T12:07:25.606Z,2874.38
2019-04-21T12:08:33.074Z,1411.88
2019-04-21T12:09:25.614Z,961.88
2019-04-21T12:10:25.595Z,736.88
2019-04-21T12:11:25.598Z,585.00
2019-04-21T12:12:25.595Z,461.25
2019-04-21T12:13:25.608Z,2874.38
2019-04-21T12:14:25.959Z,1434.38
2019-04-21T12:15:26.973Z,1068.75
2019-04-21T12:16:25.623Z,973.13
2019-04-21T12:17:25.929Z,489.38
2019-04-21T12:18:28.140Z,2874.38
2019-04-21T12:19:26.987Z,2874.38
2019-04-21T12:20:26.431Z,1215.00
2019-04-21T12:21:28.338Z,2874.38
2019-04-21T12:22:30.269Z,1108.13
2019-04-21T12:23:26.740Z,2874.38
2019-04-21T12:24:27.034Z,2874.38
2019-04-21T12:25:25.653Z,1378.13
2019-04-21T12:26:26.398Z,911.25
2019-04-21T12:27:25.757Z,450.00
2019-04-21T12:28:25.894Z,421.88
2019-04-21T12:29:26.882Z,703.13
2019-04-21T12:30:25.607Z,714.38
2019-04-21T12:31:25.633Z,990.00
2019-04-21T12:32:26.322Z,1288.13
2019-04-21T12:33:25.621Z,1164.38
2019-04-21T12:34:25.948Z,1085.63
2019-04-21T12:35:26.136Z,1136.25
2019-04-21T12:36:25.639Z,472.50
2019-04-21T12:37:26.869Z,483.75
2019-04-21T12:38:36.406Z,714.38
2019-04-21T12:39:26.996Z,793.13
2019-04-21T12:40:26.413Z,399.38
2019-04-21T12:41:26.692Z,500.63
2019-04-21T12:42:26.882Z,455.63
2019-04-21T12:43:26.460Z,843.75
2019-04-21T12:44:25.615Z,652.50
2019-04-21T12:45:26.111Z,1192.50
2019-04-21T12:46:25.863Z,590.63
2019-04-21T12:47:25.931Z,213.75
2019-04-21T12:48:26.234Z,337.50
2019-04-21T12:49:25.738Z,174.38
2019-04-21T12:50:25.900Z,174.38
2019-04-21T12:51:25.963Z,590.63
2019-04-21T12:52:25.624Z,421.88
2019-04-21T12:53:25.657Z,500.63
2019-04-21T12:54:25.953Z,253.13
2019-04-21T12:55:30.508Z,219.38
2019-04-21T12:56:25.774Z,191.25
2019-04-21T12:57:25.629Z,151.88
2019-04-21T12:58:25.647Z,140.63
2019-04-21T12:59:28.127Z,303.75
2019-04-21T13:00:26.928Z,337.50
2019-04-21T13:01:25.623Z,123.75
2019-04-21T13:02:25.630Z,174.38
2019-04-21T13:03:27.426Z,174.38
2019-04-21T13:04:25.999Z,292.50
2019-04-21T13:05:25.621Z,326.25
2019-04-21T13:06:25.629Z,286.88
2019-04-21T13:07:25.820Z,146.25
2019-04-21T13:08:25.612Z,157.50
2019-04-21T13:09:27.473Z,118.13
2019-04-21T13:10:26.403Z,168.75
2019-04-21T13:11:25.637Z,157.50
2019-04-21T13:12:26.810Z,135.00
2019-04-21T13:13:26.167Z,118.13
2019-04-21T13:14:26.170Z,112.50
2019-04-21T13:15:25.622Z,129.38
2019-04-21T13:16:25.604Z,185.63
2019-04-21T13:17:25.657Z,427.50
2019-04-21T13:18:26.950Z,371.25
2019-04-21T13:19:25.593Z,331.88
2019-04-21T13:20:25.587Z,196.88
2019-04-21T13:21:25.593Z,360.00
2019-04-21T13:22:25.931Z,146.25
2019-04-21T13:23:27.018Z,168.75
2019-04-21T13:24:26.150Z,146.25
2019-04-21T13:25:25.660Z,219.38
2019-04-21T13:26:35.872Z,208.13
2019-04-21T13:27:26.890Z,118.13
2019-04-21T13:28:25.618Z,129.38
2019-04-21T13:29:26.009Z,360.00
2019-04-21T13:30:26.379Z,1119.38
2019-04-21T13:31:26.604Z,1389.38
2019-04-21T13:32:26.877Z,185.63
2019-04-21T13:33:27.049Z,146.25
2019-04-21T13:34:26.281Z,225.00
2019-04-21T13:35:26.729Z,337.50
2019-04-21T13:36:25.700Z,331.88
2019-04-21T13:37:25.735Z,2874.38
2019-04-21T13:38:32.987Z,1338.75
2019-04-21T13:39:53.667Z,1355.63
2019-04-21T13:40:45.168Z,1080.00
2019-04-21T13:41:40.794Z,2874.38
2019-04-21T13:42:34.288Z,343.13
2019-04-21T13:43:25.549Z,523.13
2019-04-21T13:44:26.765Z,736.88
2019-04-21T13:45:25.963Z,528.75
2019-04-21T13:46:27.092Z,399.38
2019-04-21T13:47:25.540Z,630.00
2019-04-21T13:48:26.447Z,810.00
2019-04-21T13:49:25.536Z,1411.88
2019-04-21T13:50:25.672Z,1378.13
2019-04-21T13:51:26.797Z,376.88
2019-04-21T13:52:26.587Z,2874.38
2019-04-21T13:53:26.775Z,309.38
2019-04-21T13:54:25.662Z,663.75
2019-04-21T13:55:25.751Z,2874.38
2019-04-21T13:56:26.748Z,843.75